Cape Normandy — HOIS — position and weather

sailwx.info

Track history (hours):
 
Tides and Currents Weather Stations Pressure Air Temp Water Temp Dewpoint Dewpoint Depression Visibility Wind Speed Wind Dir Waves Ship Positions

Cape Normandy

Last reported at 2018-Jun-18 05:18 UTC. Time now 2018-Jun-19 04:29 UTC.
Position N 49°28' W 006°28'.

Length 292 m; draft 11 m.

Type: Cargo ship. MMSI: 373954000.

Date/timePositionNaut miles runAvg speedWind from/ knotsBaromVisibWave heightAir tempDewpointWater temp
2018-Jun-18 05:18N 49°28' W 006°28'4 7.6
2018-Jun-18 04:46N 49°29' W 006°22'2 7.8
2018-Jun-18 04:29N 49°30' W 006°19'5 8.0
2018-Jun-18 03:50N 49°31' W 006°11'3 8.3
2018-Jun-18 03:30N 49°31' W 006°07'4 8.5
2018-Jun-18 03:00N 49°32' W 006°01'7 9.0
2018-Jun-18 02:14N 49°34' W 005°50'2 9.2
2018-Jun-18 01:59N 49°34' W 005°47'54 8.7
2018-Jun-17 19:45N 49°45' W 004°25'10 7.6
2018-Jun-17 18:25N 49°47' W 004°10'15 8.7
2018-Jun-17 16:42N 49°53' W 003°48'2 9.5
2018-Jun-17 16:30N 49°53' W 003°46'5 9.8
2018-Jun-17 16:00N 49°55' W 003°38'5 9.8
2018-Jun-17 15:30N 49°56' W 003°31'510.2
2018-Jun-17 15:00N 49°56' W 003°23'510.0
2018-Jun-17 14:30N 49°58' W 003°16'5 9.8
2018-Jun-17 14:00N 49°59' W 003°08'5 9.5
2018-Jun-17 13:30N 50°00' W 003°01'4 9.0
2018-Jun-17 13:00N 50°01' W 002°54'4 8.2
2018-Jun-17 12:30N 50°02' W 002°48'4 7.7
2018-Jun-17 12:00N 50°03' W 002°42'4 7.0
2018-Jun-17 11:30N 50°04' W 002°37'4 6.4
2018-Jun-17 10:55N 50°05' W 002°31'2 6.1
2018-Jun-17 10:30N 50°06' W 002°27'17 6.5
2018-Jun-17 07:52N 50°10' W 002°01'4912.0
2018-Jun-17 03:49N 50°22' W 000°48'412.4
2018-Jun-17 03:30N 50°23' W 000°42'711.9
2018-Jun-17 02:53N 50°25' W 000°31'411.2
2018-Jun-17 02:30N 50°26' W 000°24'810.4
2018-Jun-17 01:42N 50°28' W 000°12'2 9.7
2018-Jun-17 01:30N 50°28' W 000°09'10 8.8
2018-Jun-17 00:22N 50°31' E 000°07'2 6.1
2018-Jun-17 00:00N 50°31' E 000°10'3 2.8
2018-Jun-16 22:58N 50°32' E 000°15'2 2.0
2018-Jun-16 22:08N 50°32' E 000°17'1 5.8
2018-Jun-16 22:00N 50°32' E 000°18'3 6.1
2018-Jun-16 21:30N 50°33' E 000°23'3 5.5
2018-Jun-16 21:00N 50°34' E 000°27'4 7.9
2018-Jun-16 20:30N 50°35' E 000°33'5 9.3
2018-Jun-16 20:00N 50°38' E 000°39'5 9.8
2018-Jun-16 19:30N 50°41' E 000°45'510.2
2018-Jun-16 19:00N 50°44' E 000°51'510.3
2018-Jun-16 18:30N 50°47' E 000°58'510.1
2018-Jun-16 18:00N 50°50' E 001°04'5 9.7
2018-Jun-16 17:30N 50°53' E 001°10'5 9.2
2018-Jun-16 17:00N 50°57' E 001°15'4 8.3
2018-Jun-16 16:30N 50°60' E 001°20'4 7.5
2018-Jun-16 16:00N 51°02' E 001°24'3 6.9
2018-Jun-16 15:30N 51°04' E 001°28'3 6.0
2018-Jun-16 15:00N 51°06' E 001°32'3 5.2
2018-Jun-16 14:30N 51°08' E 001°35'3 5.3
2018-Jun-16 14:00N 51°09' E 001°38'3 5.4
2018-Jun-16 13:30N 51°11' E 001°42'3 6.2
2018-Jun-16 13:00N 51°13' E 001°46'4 7.6
2018-Jun-16 12:30N 51°16' E 001°48'4 8.7
2018-Jun-16 12:00N 51°20' E 001°51'5 9.9
2018-Jun-16 11:30N 51°25' E 001°55'611.0
2018-Jun-16 11:00N 51°29' E 002°01'611.4
2018-Jun-16 10:30N 51°33' E 002°07'611.7
2018-Jun-16 10:00N 51°38' E 002°13'611.9
2018-Jun-16 09:30N 51°42' E 002°20'611.7
2018-Jun-16 09:00N 51°46' E 002°26'611.5
2018-Jun-16 08:30N 51°51' E 002°32'510.8
2018-Jun-16 08:00N 51°54' E 002°39'510.3
2018-Jun-16 07:30N 51°58' E 002°44'5 9.8
2018-Jun-16 07:00N 52°02' E 002°49'5 9.6
2018-Jun-16 06:30N 52°03' E 002°57'5 9.8
2018-Jun-16 06:00N 52°03' E 003°05'5 9.4
2018-Jun-16 05:30N 52°03' E 003°13'5 9.1
2018-Jun-16 04:59N 52°04' E 003°20'4 9.0
2018-Jun-16 04:30N 52°04' E 003°27'4 8.8
2018-Jun-16 04:00N 52°03' E 003°35'4 8.5
2018-Jun-16 03:30N 52°04' E 003°41'4 8.2
2018-Jun-16 03:00N 52°04' E 003°48'4 8.0
2018-Jun-16 02:30N 52°03' E 003°54'3 6.3
2018-Jun-16 02:00N 52°01' E 003°58'4 8.8
2018-Jun-16 01:30N 51°59' E 004°04'2 3.6
2018-Jun-16 01:00N 51°58' E 004°07'0 0.2
2018-Jun-16 00:30N 51°58' E 004°07'0 0.0
2018-Jun-16 00:00N 51°58' E 004°07'0 0.0
2018-Jun-15 23:30N 51°58' E 004°07'0 0.0
2018-Jun-15 23:00N 51°58' E 004°07'0 0.0
2018-Jun-15 22:30N 51°58' E 004°07'0 0.0
2018-Jun-15 22:00N 51°58' E 004°07'0 0.0
2018-Jun-15 21:30N 51°58' E 004°07'0 0.0
2018-Jun-15 21:00N 51°58' E 004°07'0 0.0
2018-Jun-15 20:30N 51°58' E 004°07'0 0.0
2018-Jun-15 20:00N 51°58' E 004°07'0 0.0
2018-Jun-15 19:30N 51°58' E 004°07'0 0.0
2018-Jun-15 19:00N 51°58' E 004°07'0 0.0
2018-Jun-15 18:30N 51°58' E 004°07'0 0.0
2018-Jun-15 18:00N 51°58' E 004°07'0 0.0
2018-Jun-15 17:30N 51°58' E 004°07'0 0.0
2018-Jun-15 17:00N 51°58' E 004°07'0 0.0
2018-Jun-15 16:30N 51°58' E 004°07'0 0.0
2018-Jun-15 16:00N 51°58' E 004°07'0 0.0
2018-Jun-15 15:30N 51°58' E 004°07'0 0.0
2018-Jun-15 15:00N 51°58' E 004°07'0 0.0
2018-Jun-15 14:30N 51°58' E 004°07'0 0.0
2018-Jun-15 14:00N 51°58' E 004°07'0 0.0
2018-Jun-15 13:29N 51°58' E 004°07'0 0.0
2018-Jun-15 12:59N 51°58' E 004°07'0 0.0
2018-Jun-15 12:30N 51°58' E 004°07'0 0.0
2018-Jun-15 12:00N 51°58' E 004°07'0 0.0
2018-Jun-15 11:30N 51°58' E 004°07'0 0.0
2018-Jun-15 10:59N 51°58' E 004°07'0 0.0
2018-Jun-15 10:29N 51°58' E 004°07'0 0.0
2018-Jun-15 10:00N 51°58' E 004°07'0 0.0
2018-Jun-15 09:29N 51°58' E 004°07'0 0.0
2018-Jun-15 08:59N 51°58' E 004°07'0 0.0
2018-Jun-15 08:29N 51°58' E 004°07'0 0.0
2018-Jun-15 07:59N 51°58' E 004°07'0 0.0
2018-Jun-15 07:30N 51°58' E 004°07'0 0.0
2018-Jun-15 07:00N 51°58' E 004°07'0 0.0
2018-Jun-15 06:29N 51°58' E 004°07'0 0.0
2018-Jun-15 05:59N 51°58' E 004°07'0 0.0
2018-Jun-15 05:30N 51°58' E 004°07'0 0.0
2018-Jun-15 04:59N 51°58' E 004°07'0 0.0
2018-Jun-15 04:30N 51°58' E 004°07'0 0.0
2018-Jun-15 04:00N 51°58' E 004°07'0 0.0
2018-Jun-15 03:29N 51°58' E 004°07'0 0.0
2018-Jun-15 02:59N 51°58' E 004°07'0 0.0
2018-Jun-15 02:29N 51°58' E 004°07'0 0.0
2018-Jun-15 02:00N 51°58' E 004°07'0 0.0
2018-Jun-15 01:29N 51°58' E 004°07'0 0.0
2018-Jun-15 01:00N 51°58' E 004°07'0 0.0
2018-Jun-15 00:29N 51°58' E 004°07'0 0.0
2018-Jun-14 23:59N 51°58' E 004°07'0 0.0
2018-Jun-14 23:30N 51°58' E 004°07'0 0.0
2018-Jun-14 22:59N 51°58' E 004°07'0 0.0
2018-Jun-14 22:30N 51°58' E 004°07'0 0.0
2018-Jun-14 22:00N 51°58' E 004°07'0 0.0
2018-Jun-14 21:29N 51°58' E 004°07'0 0.0
2018-Jun-14 20:59N 51°58' E 004°07'0 0.0
2018-Jun-14 20:29N 51°58' E 004°07'0 0.0
2018-Jun-14 19:59N 51°58' E 004°07'0 0.0
2018-Jun-14 19:30N 51°58' E 004°07'0 0.0
2018-Jun-14 19:00N 51°58' E 004°07'0 0.0
2018-Jun-14 18:29N 51°58' E 004°07'0 0.0
2018-Jun-14 18:00N 51°58' E 004°07'0 0.0
2018-Jun-14 17:29N 51°58' E 004°07'0 0.0
2018-Jun-14 16:59N 51°58' E 004°07'0 0.0
2018-Jun-14 16:29N 51°58' E 004°07'0 0.0
2018-Jun-14 15:59N 51°58' E 004°07'0 0.0
2018-Jun-14 15:29N 51°58' E 004°07'0 0.0
2018-Jun-14 14:59N 51°58' E 004°07'0 0.0
2018-Jun-14 14:29N 51°58' E 004°07'0 0.0
2018-Jun-14 13:59N 51°58' E 004°07'0 0.0
2018-Jun-14 13:29N 51°58' E 004°07'0 0.0
2018-Jun-14 12:59N 51°58' E 004°07'0 0.0
2018-Jun-14 12:29N 51°58' E 004°07'0 0.0
2018-Jun-14 11:59N 51°58' E 004°07'0 0.0
2018-Jun-14 11:29N 51°58' E 004°07'0 0.0
2018-Jun-14 10:59N 51°58' E 004°07'0 0.0
2018-Jun-14 10:29N 51°58' E 004°07'0 0.0
2018-Jun-14 09:59N 51°58' E 004°07'0 0.0
2018-Jun-14 09:29N 51°58' E 004°07'0 0.0
2018-Jun-14 08:59N 51°58' E 004°07'0 0.0
2018-Jun-14 08:29N 51°58' E 004°07'0 0.0
2018-Jun-14 07:59N 51°58' E 004°07'0 0.0
2018-Jun-14 07:29N 51°58' E 004°07'0 0.0
2018-Jun-14 06:59N 51°58' E 004°07'0 0.0
2018-Jun-14 06:29N 51°58' E 004°07'0 0.0
2018-Jun-14 05:59N 51°58' E 004°07'0 0.0
2018-Jun-14 05:29N 51°58' E 004°07'0 0.0
2018-Jun-14 04:53N 51°58' E 004°07'0 0.0
2018-Jun-14 04:29N 51°58' E 004°07'0 0.0
2018-Jun-14 03:59N 51°58' E 004°07'0 0.0
2018-Jun-14 03:29N 51°58' E 004°07'0 0.0
2018-Jun-14 02:59N 51°58' E 004°07'0 0.0
2018-Jun-14 02:29N 51°58' E 004°07'0 0.0
2018-Jun-14 01:59N 51°58' E 004°07'0 0.0
2018-Jun-14 01:29N 51°58' E 004°07'0 0.0
2018-Jun-14 00:59N 51°58' E 004°07'0 0.0
2018-Jun-14 00:29N 51°58' E 004°07'0 0.0
2018-Jun-13 23:59N 51°58' E 004°07'0 0.0
2018-Jun-13 23:29N 51°58' E 004°07'0 0.0
2018-Jun-13 22:59N 51°58' E 004°07'0 0.0
2018-Jun-13 22:29N 51°58' E 004°07'0 0.0
2018-Jun-13 21:59N 51°58' E 004°07'0 0.0
2018-Jun-13 21:29N 51°58' E 004°07'0 0.0
2018-Jun-13 20:59N 51°58' E 004°07'0 0.0
2018-Jun-13 20:29N 51°58' E 004°07'0 0.0
2018-Jun-13 19:59N 51°58' E 004°07'0 0.0
2018-Jun-13 19:29N 51°58' E 004°07'0 0.0
2018-Jun-13 18:59N 51°58' E 004°07'0 0.0
2018-Jun-13 18:29N 51°58' E 004°07'0 0.0
2018-Jun-13 17:59N 51°58' E 004°07'0 0.0
2018-Jun-13 17:29N 51°58' E 004°07'0 0.0
2018-Jun-13 16:59N 51°58' E 004°07'0 0.0
2018-Jun-13 16:29N 51°58' E 004°07'0 0.0
2018-Jun-13 15:59N 51°58' E 004°07'0 0.0
2018-Jun-13 15:29N 51°58' E 004°07'0 0.0
2018-Jun-13 14:59N 51°58' E 004°07'0 0.0
2018-Jun-13 14:29N 51°58' E 004°07'0 0.0
2018-Jun-13 13:59N 51°58' E 004°07'0 0.0
2018-Jun-13 13:29N 51°58' E 004°07'0 0.0
2018-Jun-13 12:59N 51°58' E 004°07'0 0.0
2018-Jun-13 12:29N 51°58' E 004°07'0 0.0
2018-Jun-13 11:59N 51°58' E 004°07'0 0.0
2018-Jun-13 11:29N 51°58' E 004°07'0 0.0
2018-Jun-13 10:59N 51°58' E 004°07'0 0.0
2018-Jun-13 10:29N 51°58' E 004°07'0 0.0
2018-Jun-13 09:59N 51°58' E 004°07'0 0.0
2018-Jun-13 09:29N 51°58' E 004°07'0 0.0
2018-Jun-13 08:59N 51°58' E 004°07'0 0.0
2018-Jun-13 08:29N 51°58' E 004°07'0 0.0
2018-Jun-13 07:59N 51°58' E 004°07'0 0.0
2018-Jun-13 07:29N 51°58' E 004°07'0 0.0
2018-Jun-13 06:59N 51°58' E 004°07'0 0.0
2018-Jun-13 06:29N 51°58' E 004°07'0 0.0
2018-Jun-13 05:59N 51°58' E 004°07'0 0.0
2018-Jun-13 05:29N 51°58' E 004°07'0 0.0
2018-Jun-13 04:59N 51°58' E 004°07'0 0.0
2018-Jun-13 04:29N 51°58' E 004°07'0 0.0
2018-Jun-13 03:59N 51°58' E 004°07'0 0.0
2018-Jun-13 03:29N 51°58' E 004°07'0 0.0
2018-Jun-13 02:59N 51°58' E 004°07'0 0.0
2018-Jun-13 02:29N 51°58' E 004°07'0 0.0
2018-Jun-13 01:59N 51°58' E 004°07'0 0.0
2018-Jun-13 01:29N 51°58' E 004°07'0 0.0
2018-Jun-13 00:59N 51°58' E 004°07'0 0.0
2018-Jun-13 00:29N 51°58' E 004°07'0 0.0
2018-Jun-12 23:59N 51°58' E 004°07'0 0.0
2018-Jun-12 23:29N 51°58' E 004°07'0 0.0
2018-Jun-12 22:59N 51°58' E 004°07'0 0.0
2018-Jun-12 22:29N 51°58' E 004°07'0 0.0
2018-Jun-12 21:59N 51°58' E 004°07'0 0.0
2018-Jun-12 21:29N 51°58' E 004°07'0 0.0
2018-Jun-12 20:59N 51°58' E 004°07'0 0.0
2018-Jun-12 20:29N 51°58' E 004°07'0 0.0
2018-Jun-12 19:59N 51°58' E 004°07'0 0.0
2018-Jun-12 19:29N 51°58' E 004°07'0 0.0
2018-Jun-12 18:59N 51°58' E 004°07'0 0.0
2018-Jun-12 18:29N 51°58' E 004°07'0 0.0
2018-Jun-12 17:59N 51°58' E 004°07'0 0.0
2018-Jun-12 17:29N 51°58' E 004°07'0 0.0
2018-Jun-12 16:59N 51°58' E 004°07'0 0.0
2018-Jun-12 16:29N 51°58' E 004°07'0 0.0
2018-Jun-12 15:59N 51°58' E 004°07'0 0.0
2018-Jun-12 15:29N 51°58' E 004°07'0 0.0
2018-Jun-12 14:59N 51°58' E 004°07'0 0.0
2018-Jun-12 14:29N 51°58' E 004°07'0 0.0
2018-Jun-12 13:59N 51°58' E 004°07'0 0.0
2018-Jun-12 13:29N 51°58' E 004°07'0 0.0
2018-Jun-12 12:59N 51°58' E 004°07'0 0.0
2018-Jun-12 12:29N 51°58' E 004°07'0 0.0
2018-Jun-12 11:59N 51°58' E 004°07'0 0.0
2018-Jun-12 11:29N 51°58' E 004°07'0 0.0
2018-Jun-12 10:59N 51°58' E 004°07'0 0.0
2018-Jun-12 10:29N 51°58' E 004°07'0 0.0
2018-Jun-12 09:59N 51°58' E 004°07'0 0.0
2018-Jun-12 09:29N 51°58' E 004°07'0 0.0
2018-Jun-12 08:59N 51°58' E 004°07'0 0.0
2018-Jun-12 08:29N 51°58' E 004°07'0 0.0
2018-Jun-12 08:00N 51°58' E 004°07'0 0.0
2018-Jun-12 07:29N 51°58' E 004°07'0 0.0
2018-Jun-12 06:59N 51°58' E 004°07'0 0.0
2018-Jun-12 06:29N 51°58' E 004°07'0 0.0
2018-Jun-12 05:59N 51°58' E 004°07'0 0.0
2018-Jun-12 05:29N 51°58' E 004°07'0 0.0
2018-Jun-12 04:59N 51°58' E 004°07'0 0.0
2018-Jun-12 04:29N 51°58' E 004°07'0 0.0
2018-Jun-12 03:59N 51°58' E 004°07'0 0.0
2018-Jun-12 03:29N 51°58' E 004°07'0 0.0
2018-Jun-12 02:59N 51°58' E 004°07'0 0.0
2018-Jun-12 02:29N 51°58' E 004°07'0 0.0
2018-Jun-12 01:59N 51°58' E 004°07'0 0.0
2018-Jun-12 01:26N 51°58' E 004°07'0 0.0
2018-Jun-12 00:59N 51°58' E 004°07'0 0.0
2018-Jun-12 00:29N 51°58' E 004°07'0 0.0
2018-Jun-11 23:59N 51°58' E 004°07'0 0.0
2018-Jun-11 23:29N 51°58' E 004°07'0 0.0
2018-Jun-11 22:59N 51°58' E 004°07'0 0.0
2018-Jun-11 22:29N 51°58' E 004°07'0 0.0
2018-Jun-11 21:56N 51°58' E 004°07'0 0.0
2018-Jun-11 21:29N 51°58' E 004°07'0 0.0
2018-Jun-11 20:56N 51°58' E 004°07'0 0.0
2018-Jun-11 20:29N 51°58' E 004°07'0 0.0
2018-Jun-11 19:59N 51°58' E 004°07'0 0.0
2018-Jun-11 19:29N 51°58' E 004°07'0 0.0
2018-Jun-11 18:59N 51°58' E 004°07'0 0.0
2018-Jun-11 18:29N 51°58' E 004°07'0 0.0
2018-Jun-11 17:59N 51°58' E 004°07'0 0.0
2018-Jun-11 17:29N 51°58' E 004°07'0 0.0
2018-Jun-11 16:59N 51°58' E 004°07'0 0.0
2018-Jun-11 16:29N 51°58' E 004°07'0 0.0
2018-Jun-11 15:59N 51°58' E 004°07'0 0.0
2018-Jun-11 15:29N 51°58' E 004°07'0 0.0
2018-Jun-11 14:59N 51°58' E 004°07'0 0.0
2018-Jun-11 14:26N 51°58' E 004°07'0 0.0
2018-Jun-11 13:59N 51°58' E 004°07'0 0.0
2018-Jun-11 13:29N 51°58' E 004°07'0 0.0
2018-Jun-11 12:59N 51°58' E 004°07'0 0.0
2018-Jun-11 12:29N 51°58' E 004°07'0 0.0
2018-Jun-11 11:59N 51°58' E 004°07'0 0.0
2018-Jun-11 11:29N 51°58' E 004°07'0 0.0
2018-Jun-11 10:59N 51°58' E 004°07'0 0.0
2018-Jun-11 10:29N 51°58' E 004°07'0 0.0
2018-Jun-11 09:59N 51°58' E 004°07'0 0.0
2018-Jun-11 09:29N 51°58' E 004°07'0 0.0
2018-Jun-11 08:59N 51°58' E 004°07'0 0.0
2018-Jun-11 08:29N 51°58' E 004°07'0 0.0
2018-Jun-11 07:59N 51°58' E 004°07'0 0.0
2018-Jun-11 07:29N 51°58' E 004°07'0 0.0
2018-Jun-11 06:59N 51°58' E 004°07'0 0.0
2018-Jun-11 06:29N 51°58' E 004°07'0 0.0
2018-Jun-11 05:59N 51°58' E 004°07'0 0.0
2018-Jun-11 05:29N 51°58' E 004°07'0 0.0
2018-Jun-11 04:59N 51°58' E 004°07'0 0.0
2018-Jun-11 04:29N 51°58' E 004°07'0 0.0
2018-Jun-11 03:59N 51°58' E 004°07'0 0.0
2018-Jun-11 03:29N 51°58' E 004°07'0 0.0
2018-Jun-11 02:59N 51°58' E 004°07'0 0.0
2018-Jun-11 02:29N 51°58' E 004°07'0 0.0
2018-Jun-11 01:59N 51°58' E 004°07'0 0.0
2018-Jun-11 01:29N 51°58' E 004°07'0 0.0
2018-Jun-11 00:59N 51°58' E 004°07'0 0.0
2018-Jun-11 00:26N 51°58' E 004°07'0 0.0
2018-Jun-10 23:59N 51°58' E 004°07'0 0.0
2018-Jun-10 23:29N 51°58' E 004°07'0 0.0
2018-Jun-10 22:59N 51°58' E 004°07'0 0.0
2018-Jun-10 22:29N 51°58' E 004°07'0 0.0
2018-Jun-10 21:59N 51°58' E 004°07'0 0.0
2018-Jun-10 21:29N 51°58' E 004°07'0 0.0
2018-Jun-10 20:59N 51°58' E 004°07'0 0.0
2018-Jun-10 20:29N 51°58' E 004°07'0 0.0
2018-Jun-10 19:59N 51°58' E 004°07'0 0.0
2018-Jun-10 19:29N 51°58' E 004°07'0 0.0
2018-Jun-10 18:59N 51°58' E 004°07'0 0.0
2018-Jun-10 18:29N 51°58' E 004°07'0 0.0
2018-Jun-10 17:59N 51°58' E 004°07'0 0.0
2018-Jun-10 17:29N 51°58' E 004°07'0 0.0
2018-Jun-10 16:59N 51°58' E 004°07'0 0.0
2018-Jun-10 16:29N 51°58' E 004°07'0 0.0
2018-Jun-10 15:59N 51°58' E 004°07'0 0.0
2018-Jun-10 15:29N 51°58' E 004°07'0 0.0
2018-Jun-10 14:59N 51°58' E 004°07'0 0.0
2018-Jun-10 13:59N 51°58' E 004°07'0 0.0
2018-Jun-10 13:29N 51°58' E 004°07'0 0.0
2018-Jun-10 12:59N 51°58' E 004°07'0 0.0
2018-Jun-10 12:29N 51°58' E 004°07'0 0.0
2018-Jun-10 11:59N 51°58' E 004°07'0 0.0
2018-Jun-10 11:29N 51°58' E 004°07'0 0.0
2018-Jun-10 10:59N 51°58' E 004°07'0 0.0
2018-Jun-10 10:29N 51°58' E 004°07'0 0.0
2018-Jun-10 09:59N 51°58' E 004°07'0 0.0
2018-Jun-10 09:29N 51°58' E 004°07'0 0.0
2018-Jun-10 08:59N 51°58' E 004°07'0 0.0
2018-Jun-10 08:29N 51°58' E 004°07'0 0.0
2018-Jun-10 07:59N 51°58' E 004°07'0 0.0
2018-Jun-10 07:29N 51°58' E 004°07'0 0.0
2018-Jun-10 06:59N 51°58' E 004°07'0 0.0
2018-Jun-10 06:29N 51°58' E 004°07'0 0.0
2018-Jun-10 05:59N 51°58' E 004°07'0 0.0
2018-Jun-10 05:29N 51°58' E 004°07'0 0.0
2018-Jun-10 04:59N 51°58' E 004°07'0 0.0
2018-Jun-10 04:29N 51°58' E 004°07'0 0.0
2018-Jun-10 03:59N 51°58' E 004°07'0 0.0
2018-Jun-10 03:29N 51°58' E 004°07'0 0.0
2018-Jun-10 02:59N 51°58' E 004°07'0 0.0
2018-Jun-10 02:29N 51°58' E 004°07'0 0.0
2018-Jun-10 01:59N 51°58' E 004°07'0 0.0
2018-Jun-10 01:29N 51°58' E 004°07'0 0.0
2018-Jun-10 00:59N 51°58' E 004°07'0 0.0
2018-Jun-10 00:29N 51°58' E 004°07'0 0.0
2018-Jun-09 23:59N 51°58' E 004°07'0 0.0
2018-Jun-09 23:29N 51°58' E 004°07'0 0.0
2018-Jun-09 22:59N 51°58' E 004°07'0 0.0
2018-Jun-09 22:29N 51°58' E 004°07'0 0.0
2018-Jun-09 21:59N 51°58' E 004°07'0 0.0
2018-Jun-09 21:29N 51°58' E 004°07'0 0.0
2018-Jun-09 20:59N 51°58' E 004°07'0 0.0
2018-Jun-09 20:29N 51°58' E 004°07'0 0.0
2018-Jun-09 19:59N 51°58' E 004°07'0 0.0
2018-Jun-09 19:29N 51°58' E 004°07'0 0.0
2018-Jun-09 18:59N 51°58' E 004°07'0 0.0
2018-Jun-09 18:29N 51°58' E 004°07'0 0.0
2018-Jun-09 17:59N 51°58' E 004°07'0 0.0
2018-Jun-09 17:29N 51°58' E 004°07'0 0.0
2018-Jun-09 16:59N 51°58' E 004°07'0 0.0
2018-Jun-09 16:29N 51°58' E 004°07'0 0.0
2018-Jun-09 15:59N 51°58' E 004°07'0 0.0
2018-Jun-09 14:59N 51°58' E 004°07'0 0.0
2018-Jun-09 14:29N 51°58' E 004°07'0 0.0
2018-Jun-09 13:59N 51°58' E 004°07'0 0.0
2018-Jun-09 13:29N 51°58' E 004°07'0 0.0
2018-Jun-09 12:59N 51°58' E 004°07'0 0.0
2018-Jun-09 12:29N 51°58' E 004°07'0 0.0
2018-Jun-09 11:59N 51°58' E 004°07'0 0.0
2018-Jun-09 11:29N 51°58' E 004°07'0 0.0
2018-Jun-09 10:59N 51°58' E 004°07'0 0.0
2018-Jun-09 10:29N 51°58' E 004°07'0 0.0
2018-Jun-09 09:59N 51°58' E 004°07'0 0.0
2018-Jun-09 09:29N 51°58' E 004°07'0 0.0
2018-Jun-09 08:59N 51°58' E 004°07'0 0.0
2018-Jun-09 08:29N 51°58' E 004°07'0 0.0
2018-Jun-09 07:59N 51°58' E 004°07'0 0.0
2018-Jun-09 07:29N 51°58' E 004°07'0 0.0
2018-Jun-09 06:59N 51°58' E 004°07'0 0.0
2018-Jun-09 06:29N 51°58' E 004°07'0 0.0
2018-Jun-09 05:59N 51°58' E 004°07'0 0.0
2018-Jun-09 05:29N 51°58' E 004°07'0 0.0
2018-Jun-09 04:59N 51°58' E 004°07'0 0.0
2018-Jun-09 04:29N 51°58' E 004°07'0 0.0
2018-Jun-09 03:59N 51°58' E 004°07'0 0.0
2018-Jun-09 03:29N 51°58' E 004°07'0 0.0
2018-Jun-09 02:59N 51°58' E 004°07'0 0.0
2018-Jun-09 02:29N 51°58' E 004°07'0 0.0
2018-Jun-09 01:59N 51°58' E 004°07'0 0.0
2018-Jun-09 01:29N 51°58' E 004°07'0 0.0
2018-Jun-09 00:59N 51°58' E 004°07'0 0.0
2018-Jun-09 00:29N 51°58' E 004°07'0 0.0
2018-Jun-08 23:59N 51°58' E 004°07'0 0.0
2018-Jun-08 23:29N 51°58' E 004°07'0 0.0
2018-Jun-08 22:59N 51°58' E 004°07'0 0.0
2018-Jun-08 22:29N 51°58' E 004°07'0 0.1
2018-Jun-08 22:01N 51°58' E 004°07'1 2.4
2018-Jun-08 21:30N 51°59' E 004°05'3 6.1
2018-Jun-08 21:01N 51°60' E 004°01'4 7.9
2018-Jun-08 20:30N 52°01' E 003°55'5 9.8
2018-Jun-08 20:00N 52°01' E 003°47'511.1
2018-Jun-08 19:30N 52°00' E 003°38'611.1
2018-Jun-08 19:00N 51°60' E 003°29'611.4
2018-Jun-08 18:30N 51°59' E 003°20'510.9
2018-Jun-08 18:00N 51°58' E 003°11'510.2
2018-Jun-08 17:30N 51°58' E 003°03'3 6.8
2018-Jun-08 17:00N 51°57' E 002°57'2 3.7
2018-Jun-08 16:31N 51°56' E 002°56'0 0.1
2018-Jun-08 15:57N 51°56' E 002°56'0 0.0
2018-Jun-08 15:30N 51°56' E 002°56'0 0.0
2018-Jun-08 15:00N 51°56' E 002°56'0 0.0
2018-Jun-08 14:27N 51°56' E 002°56'0 0.0
2018-Jun-08 14:00N 51°56' E 002°56'0 0.5
2018-Jun-08 13:15N 51°56' E 002°56'0 0.2
2018-Jun-08 12:54N 51°56' E 002°56'0 0.1
2018-Jun-08 12:30N 51°56' E 002°56'0 0.1
2018-Jun-08 12:00N 51°56' E 002°56'0 0.0
2018-Jun-08 11:30N 51°56' E 002°56'1 1.6
2018-Jun-08 11:00N 51°57' E 002°56'3 5.4
2018-Jun-08 10:27N 51°56' E 002°51'2 5.2
2018-Jun-08 10:00N 51°55' E 002°48'4 8.6
2018-Jun-08 09:30N 51°52' E 002°43'511.0
2018-Jun-08 09:00N 51°48' E 002°37'610.9
2018-Jun-08 08:25N 51°43' E 002°30'510.9
2018-Jun-08 08:00N 51°39' E 002°26'510.8
2018-Jun-08 07:30N 51°35' E 002°20'510.8
2018-Jun-08 07:00N 51°31' E 002°14'510.6
2018-Jun-08 06:30N 51°27' E 002°09'510.5
2018-Jun-08 06:00N 51°23' E 002°03'510.5
2018-Jun-08 05:30N 51°19' E 001°57'  
Track history (hours):
 
Tides and Currents Weather Stations Pressure Air Temp Water Temp Dewpoint Dewpoint Depression Visibility Wind Speed Wind Dir Waves Ship Positions

Cape Normandy

Last reported at 2018-Jun-18 05:18 UTC. Time now 2018-Jun-19 04:29 UTC.
Position N 49°28' W 006°28'.

Length 292 m; draft 11 m.

Type: Cargo ship. MMSI: 373954000.

Date/timePositionNaut miles runAvg speedWind from/ knotsBaromVisibWave heightAir tempDewpointWater temp
2018-Jun-18 05:18N 49°28' W 006°28'4 7.6
2018-Jun-18 04:46N 49°29' W 006°22'2 7.8
2018-Jun-18 04:29N 49°30' W 006°19'5 8.0
2018-Jun-18 03:50N 49°31' W 006°11'3 8.3
2018-Jun-18 03:30N 49°31' W 006°07'4 8.5
2018-Jun-18 03:00N 49°32' W 006°01'7 9.0
2018-Jun-18 02:14N 49°34' W 005°50'2 9.2
2018-Jun-18 01:59N 49°34' W 005°47'54 8.7
2018-Jun-17 19:45N 49°45' W 004°25'10 7.6
2018-Jun-17 18:25N 49°47' W 004°10'15 8.7
2018-Jun-17 16:42N 49°53' W 003°48'2 9.5
2018-Jun-17 16:30N 49°53' W 003°46'5 9.8
2018-Jun-17 16:00N 49°55' W 003°38'5 9.8
2018-Jun-17 15:30N 49°56' W 003°31'510.2
2018-Jun-17 15:00N 49°56' W 003°23'510.0
2018-Jun-17 14:30N 49°58' W 003°16'5 9.8
2018-Jun-17 14:00N 49°59' W 003°08'5 9.5
2018-Jun-17 13:30N 50°00' W 003°01'4 9.0
2018-Jun-17 13:00N 50°01' W 002°54'4 8.2
2018-Jun-17 12:30N 50°02' W 002°48'4 7.7
2018-Jun-17 12:00N 50°03' W 002°42'4 7.0
2018-Jun-17 11:30N 50°04' W 002°37'4 6.4
2018-Jun-17 10:55N 50°05' W 002°31'2 6.1
2018-Jun-17 10:30N 50°06' W 002°27'17 6.5
2018-Jun-17 07:52N 50°10' W 002°01'4912.0
2018-Jun-17 03:49N 50°22' W 000°48'412.4
2018-Jun-17 03:30N 50°23' W 000°42'711.9
2018-Jun-17 02:53N 50°25' W 000°31'411.2
2018-Jun-17 02:30N 50°26' W 000°24'810.4
2018-Jun-17 01:42N 50°28' W 000°12'2 9.7
2018-Jun-17 01:30N 50°28' W 000°09'10 8.8
2018-Jun-17 00:22N 50°31' E 000°07'2 6.1
2018-Jun-17 00:00N 50°31' E 000°10'3 2.8
2018-Jun-16 22:58N 50°32' E 000°15'2 2.0
2018-Jun-16 22:08N 50°32' E 000°17'1 5.8
2018-Jun-16 22:00N 50°32' E 000°18'3 6.1
2018-Jun-16 21:30N 50°33' E 000°23'3 5.5
2018-Jun-16 21:00N 50°34' E 000°27'4 7.9
2018-Jun-16 20:30N 50°35' E 000°33'5 9.3
2018-Jun-16 20:00N 50°38' E 000°39'5 9.8
2018-Jun-16 19:30N 50°41' E 000°45'510.2
2018-Jun-16 19:00N 50°44' E 000°51'510.3
2018-Jun-16 18:30N 50°47' E 000°58'510.1
2018-Jun-16 18:00N 50°50' E 001°04'5 9.7
2018-Jun-16 17:30N 50°53' E 001°10'5 9.2
2018-Jun-16 17:00N 50°57' E 001°15'4 8.3
2018-Jun-16 16:30N 50°60' E 001°20'4 7.5
2018-Jun-16 16:00N 51°02' E 001°24'3 6.9
2018-Jun-16 15:30N 51°04' E 001°28'3 6.0
2018-Jun-16 15:00N 51°06' E 001°32'3 5.2
2018-Jun-16 14:30N 51°08' E 001°35'3 5.3
2018-Jun-16 14:00N 51°09' E 001°38'3 5.4
2018-Jun-16 13:30N 51°11' E 001°42'3 6.2
2018-Jun-16 13:00N 51°13' E 001°46'4 7.6
2018-Jun-16 12:30N 51°16' E 001°48'4 8.7
2018-Jun-16 12:00N 51°20' E 001°51'5 9.9
2018-Jun-16 11:30N 51°25' E 001°55'611.0
2018-Jun-16 11:00N 51°29' E 002°01'611.4
2018-Jun-16 10:30N 51°33' E 002°07'611.7
2018-Jun-16 10:00N 51°38' E 002°13'611.9
2018-Jun-16 09:30N 51°42' E 002°20'611.7
2018-Jun-16 09:00N 51°46' E 002°26'611.5
2018-Jun-16 08:30N 51°51' E 002°32'510.8
2018-Jun-16 08:00N 51°54' E 002°39'510.3
2018-Jun-16 07:30N 51°58' E 002°44'5 9.8
2018-Jun-16 07:00N 52°02' E 002°49'5 9.6
2018-Jun-16 06:30N 52°03' E 002°57'5 9.8
2018-Jun-16 06:00N 52°03' E 003°05'5 9.4
2018-Jun-16 05:30N 52°03' E 003°13'5 9.1
2018-Jun-16 04:59N 52°04' E 003°20'4 9.0
2018-Jun-16 04:30N 52°04' E 003°27'4 8.8
2018-Jun-16 04:00N 52°03' E 003°35'4 8.5
2018-Jun-16 03:30N 52°04' E 003°41'4 8.2
2018-Jun-16 03:00N 52°04' E 003°48'4 8.0
2018-Jun-16 02:30N 52°03' E 003°54'3 6.3
2018-Jun-16 02:00N 52°01' E 003°58'4 8.8
2018-Jun-16 01:30N 51°59' E 004°04'2 3.6
2018-Jun-16 01:00N 51°58' E 004°07'0 0.2
2018-Jun-16 00:30N 51°58' E 004°07'0 0.0
2018-Jun-16 00:00N 51°58' E 004°07'0 0.0
2018-Jun-15 23:30N 51°58' E 004°07'0 0.0
2018-Jun-15 23:00N 51°58' E 004°07'0 0.0
2018-Jun-15 22:30N 51°58' E 004°07'0 0.0
2018-Jun-15 22:00N 51°58' E 004°07'0 0.0
2018-Jun-15 21:30N 51°58' E 004°07'0 0.0
2018-Jun-15 21:00N 51°58' E 004°07'0 0.0
2018-Jun-15 20:30N 51°58' E 004°07'0 0.0
2018-Jun-15 20:00N 51°58' E 004°07'0 0.0
2018-Jun-15 19:30N 51°58' E 004°07'0 0.0
2018-Jun-15 19:00N 51°58' E 004°07'0 0.0
2018-Jun-15 18:30N 51°58' E 004°07'0 0.0
2018-Jun-15 18:00N 51°58' E 004°07'0 0.0
2018-Jun-15 17:30N 51°58' E 004°07'0 0.0
2018-Jun-15 17:00N 51°58' E 004°07'0 0.0
2018-Jun-15 16:30N 51°58' E 004°07'0 0.0
2018-Jun-15 16:00N 51°58' E 004°07'0 0.0
2018-Jun-15 15:30N 51°58' E 004°07'0 0.0
2018-Jun-15 15:00N 51°58' E 004°07'0 0.0
2018-Jun-15 14:30N 51°58' E 004°07'0 0.0
2018-Jun-15 14:00N 51°58' E 004°07'0 0.0
2018-Jun-15 13:29N 51°58' E 004°07'0 0.0
2018-Jun-15 12:59N 51°58' E 004°07'0 0.0
2018-Jun-15 12:30N 51°58' E 004°07'0 0.0
2018-Jun-15 12:00N 51°58' E 004°07'0 0.0
2018-Jun-15 11:30N 51°58' E 004°07'0 0.0
2018-Jun-15 10:59N 51°58' E 004°07'0 0.0
2018-Jun-15 10:29N 51°58' E 004°07'0 0.0
2018-Jun-15 10:00N 51°58' E 004°07'0 0.0
2018-Jun-15 09:29N 51°58' E 004°07'0 0.0
2018-Jun-15 08:59N 51°58' E 004°07'0 0.0
2018-Jun-15 08:29N 51°58' E 004°07'0 0.0
2018-Jun-15 07:59N 51°58' E 004°07'0 0.0
2018-Jun-15 07:30N 51°58' E 004°07'0 0.0
2018-Jun-15 07:00N 51°58' E 004°07'0 0.0
2018-Jun-15 06:29N 51°58' E 004°07'0 0.0
2018-Jun-15 05:59N 51°58' E 004°07'0 0.0
2018-Jun-15 05:30N 51°58' E 004°07'0 0.0
2018-Jun-15 04:59N 51°58' E 004°07'0 0.0
2018-Jun-15 04:30N 51°58' E 004°07'0 0.0
2018-Jun-15 04:00N 51°58' E 004°07'0 0.0
2018-Jun-15 03:29N 51°58' E 004°07'0 0.0
2018-Jun-15 02:59N 51°58' E 004°07'0 0.0
2018-Jun-15 02:29N 51°58' E 004°07'0 0.0
2018-Jun-15 02:00N 51°58' E 004°07'0 0.0
2018-Jun-15 01:29N 51°58' E 004°07'0 0.0
2018-Jun-15 01:00N 51°58' E 004°07'0 0.0
2018-Jun-15 00:29N 51°58' E 004°07'0 0.0
2018-Jun-14 23:59N 51°58' E 004°07'0 0.0
2018-Jun-14 23:30N 51°58' E 004°07'0 0.0
2018-Jun-14 22:59N 51°58' E 004°07'0 0.0
2018-Jun-14 22:30N 51°58' E 004°07'0 0.0
2018-Jun-14 22:00N 51°58' E 004°07'0 0.0
2018-Jun-14 21:29N 51°58' E 004°07'0 0.0
2018-Jun-14 20:59N 51°58' E 004°07'0 0.0
2018-Jun-14 20:29N 51°58' E 004°07'0 0.0
2018-Jun-14 19:59N 51°58' E 004°07'0 0.0
2018-Jun-14 19:30N 51°58' E 004°07'0 0.0
2018-Jun-14 19:00N 51°58' E 004°07'0 0.0
2018-Jun-14 18:29N 51°58' E 004°07'0 0.0
2018-Jun-14 18:00N 51°58' E 004°07'0 0.0
2018-Jun-14 17:29N 51°58' E 004°07'0 0.0
2018-Jun-14 16:59N 51°58' E 004°07'0 0.0
2018-Jun-14 16:29N 51°58' E 004°07'0 0.0
2018-Jun-14 15:59N 51°58' E 004°07'0 0.0
2018-Jun-14 15:29N 51°58' E 004°07'0 0.0
2018-Jun-14 14:59N 51°58' E 004°07'0 0.0
2018-Jun-14 14:29N 51°58' E 004°07'0 0.0
2018-Jun-14 13:59N 51°58' E 004°07'0 0.0
2018-Jun-14 13:29N 51°58' E 004°07'0 0.0
2018-Jun-14 12:59N 51°58' E 004°07'0 0.0
2018-Jun-14 12:29N 51°58' E 004°07'0 0.0
2018-Jun-14 11:59N 51°58' E 004°07'0 0.0
2018-Jun-14 11:29N 51°58' E 004°07'0 0.0
2018-Jun-14 10:59N 51°58' E 004°07'0 0.0
2018-Jun-14 10:29N 51°58' E 004°07'0 0.0
2018-Jun-14 09:59N 51°58' E 004°07'0 0.0
2018-Jun-14 09:29N 51°58' E 004°07'0 0.0
2018-Jun-14 08:59N 51°58' E 004°07'0 0.0
2018-Jun-14 08:29N 51°58' E 004°07'0 0.0
2018-Jun-14 07:59N 51°58' E 004°07'0 0.0
2018-Jun-14 07:29N 51°58' E 004°07'0 0.0
2018-Jun-14 06:59N 51°58' E 004°07'0 0.0
2018-Jun-14 06:29N 51°58' E 004°07'0 0.0
2018-Jun-14 05:59N 51°58' E 004°07'0 0.0
2018-Jun-14 05:29N 51°58' E 004°07'0 0.0
2018-Jun-14 04:53N 51°58' E 004°07'0 0.0
2018-Jun-14 04:29N 51°58' E 004°07'0 0.0
2018-Jun-14 03:59N 51°58' E 004°07'0 0.0
2018-Jun-14 03:29N 51°58' E 004°07'0 0.0
2018-Jun-14 02:59N 51°58' E 004°07'0 0.0
2018-Jun-14 02:29N 51°58' E 004°07'0 0.0
2018-Jun-14 01:59N 51°58' E 004°07'0 0.0
2018-Jun-14 01:29N 51°58' E 004°07'0 0.0
2018-Jun-14 00:59N 51°58' E 004°07'0 0.0
2018-Jun-14 00:29N 51°58' E 004°07'0 0.0
2018-Jun-13 23:59N 51°58' E 004°07'0 0.0
2018-Jun-13 23:29N 51°58' E 004°07'0 0.0
2018-Jun-13 22:59N 51°58' E 004°07'0 0.0
2018-Jun-13 22:29N 51°58' E 004°07'0 0.0
2018-Jun-13 21:59N 51°58' E 004°07'0 0.0
2018-Jun-13 21:29N 51°58' E 004°07'0 0.0
2018-Jun-13 20:59N 51°58' E 004°07'0 0.0
2018-Jun-13 20:29N 51°58' E 004°07'0 0.0
2018-Jun-13 19:59N 51°58' E 004°07'0 0.0
2018-Jun-13 19:29N 51°58' E 004°07'0 0.0
2018-Jun-13 18:59N 51°58' E 004°07'0 0.0
2018-Jun-13 18:29N 51°58' E 004°07'0 0.0
2018-Jun-13 17:59N 51°58' E 004°07'0 0.0
2018-Jun-13 17:29N 51°58' E 004°07'0 0.0
2018-Jun-13 16:59N 51°58' E 004°07'0 0.0
2018-Jun-13 16:29N 51°58' E 004°07'0 0.0
2018-Jun-13 15:59N 51°58' E 004°07'0 0.0
2018-Jun-13 15:29N 51°58' E 004°07'0 0.0
2018-Jun-13 14:59N 51°58' E 004°07'0 0.0
2018-Jun-13 14:29N 51°58' E 004°07'0 0.0
2018-Jun-13 13:59N 51°58' E 004°07'0 0.0
2018-Jun-13 13:29N 51°58' E 004°07'0 0.0
2018-Jun-13 12:59N 51°58' E 004°07'0 0.0
2018-Jun-13 12:29N 51°58' E 004°07'0 0.0
2018-Jun-13 11:59N 51°58' E 004°07'0 0.0
2018-Jun-13 11:29N 51°58' E 004°07'0 0.0
2018-Jun-13 10:59N 51°58' E 004°07'0 0.0
2018-Jun-13 10:29N 51°58' E 004°07'0 0.0
2018-Jun-13 09:59N 51°58' E 004°07'0 0.0
2018-Jun-13 09:29N 51°58' E 004°07'0 0.0
2018-Jun-13 08:59N 51°58' E 004°07'0 0.0
2018-Jun-13 08:29N 51°58' E 004°07'0 0.0
2018-Jun-13 07:59N 51°58' E 004°07'0 0.0
2018-Jun-13 07:29N 51°58' E 004°07'0 0.0
2018-Jun-13 06:59N 51°58' E 004°07'0 0.0
2018-Jun-13 06:29N 51°58' E 004°07'0 0.0
2018-Jun-13 05:59N 51°58' E 004°07'0 0.0
2018-Jun-13 05:29N 51°58' E 004°07'0 0.0
2018-Jun-13 04:59N 51°58' E 004°07'0 0.0
2018-Jun-13 04:29N 51°58' E 004°07'0 0.0
2018-Jun-13 03:59N 51°58' E 004°07'0 0.0
2018-Jun-13 03:29N 51°58' E 004°07'0 0.0
2018-Jun-13 02:59N 51°58' E 004°07'0 0.0
2018-Jun-13 02:29N 51°58' E 004°07'0 0.0
2018-Jun-13 01:59N 51°58' E 004°07'0 0.0
2018-Jun-13 01:29N 51°58' E 004°07'0 0.0
2018-Jun-13 00:59N 51°58' E 004°07'0 0.0
2018-Jun-13 00:29N 51°58' E 004°07'0 0.0
2018-Jun-12 23:59N 51°58' E 004°07'0 0.0
2018-Jun-12 23:29N 51°58' E 004°07'0 0.0
2018-Jun-12 22:59N 51°58' E 004°07'0 0.0
2018-Jun-12 22:29N 51°58' E 004°07'0 0.0
2018-Jun-12 21:59N 51°58' E 004°07'0 0.0
2018-Jun-12 21:29N 51°58' E 004°07'0 0.0
2018-Jun-12 20:59N 51°58' E 004°07'0 0.0
2018-Jun-12 20:29N 51°58' E 004°07'0 0.0
2018-Jun-12 19:59N 51°58' E 004°07'0 0.0
2018-Jun-12 19:29N 51°58' E 004°07'0 0.0
2018-Jun-12 18:59N 51°58' E 004°07'0 0.0
2018-Jun-12 18:29N 51°58' E 004°07'0 0.0
2018-Jun-12 17:59N 51°58' E 004°07'0 0.0
2018-Jun-12 17:29N 51°58' E 004°07'0 0.0
2018-Jun-12 16:59N 51°58' E 004°07'0 0.0
2018-Jun-12 16:29N 51°58' E 004°07'0 0.0
2018-Jun-12 15:59N 51°58' E 004°07'0 0.0
2018-Jun-12 15:29N 51°58' E 004°07'0 0.0
2018-Jun-12 14:59N 51°58' E 004°07'0 0.0
2018-Jun-12 14:29N 51°58' E 004°07'0 0.0
2018-Jun-12 13:59N 51°58' E 004°07'0 0.0
2018-Jun-12 13:29N 51°58' E 004°07'0 0.0
2018-Jun-12 12:59N 51°58' E 004°07'0 0.0
2018-Jun-12 12:29N 51°58' E 004°07'0 0.0
2018-Jun-12 11:59N 51°58' E 004°07'0 0.0
2018-Jun-12 11:29N 51°58' E 004°07'0 0.0
2018-Jun-12 10:59N 51°58' E 004°07'0 0.0
2018-Jun-12 10:29N 51°58' E 004°07'0 0.0
2018-Jun-12 09:59N 51°58' E 004°07'0 0.0
2018-Jun-12 09:29N 51°58' E 004°07'0 0.0
2018-Jun-12 08:59N 51°58' E 004°07'0 0.0
2018-Jun-12 08:29N 51°58' E 004°07'0 0.0
2018-Jun-12 08:00N 51°58' E 004°07'0 0.0
2018-Jun-12 07:29N 51°58' E 004°07'0 0.0
2018-Jun-12 06:59N 51°58' E 004°07'0 0.0
2018-Jun-12 06:29N 51°58' E 004°07'0 0.0
2018-Jun-12 05:59N 51°58' E 004°07'0 0.0
2018-Jun-12 05:29N 51°58' E 004°07'0 0.0
2018-Jun-12 04:59N 51°58' E 004°07'0 0.0
2018-Jun-12 04:29N 51°58' E 004°07'0 0.0
2018-Jun-12 03:59N 51°58' E 004°07'0 0.0
2018-Jun-12 03:29N 51°58' E 004°07'0 0.0
2018-Jun-12 02:59N 51°58' E 004°07'0 0.0
2018-Jun-12 02:29N 51°58' E 004°07'0 0.0
2018-Jun-12 01:59N 51°58' E 004°07'0 0.0
2018-Jun-12 01:26N 51°58' E 004°07'0 0.0
2018-Jun-12 00:59N 51°58' E 004°07'0 0.0
2018-Jun-12 00:29N 51°58' E 004°07'0 0.0
2018-Jun-11 23:59N 51°58' E 004°07'0 0.0
2018-Jun-11 23:29N 51°58' E 004°07'0 0.0
2018-Jun-11 22:59N 51°58' E 004°07'0 0.0
2018-Jun-11 22:29N 51°58' E 004°07'0 0.0
2018-Jun-11 21:56N 51°58' E 004°07'0 0.0
2018-Jun-11 21:29N 51°58' E 004°07'0 0.0
2018-Jun-11 20:56N 51°58' E 004°07'0 0.0
2018-Jun-11 20:29N 51°58' E 004°07'0 0.0
2018-Jun-11 19:59N 51°58' E 004°07'0 0.0
2018-Jun-11 19:29N 51°58' E 004°07'0 0.0
2018-Jun-11 18:59N 51°58' E 004°07'0 0.0
2018-Jun-11 18:29N 51°58' E 004°07'0 0.0
2018-Jun-11 17:59N 51°58' E 004°07'0 0.0
2018-Jun-11 17:29N 51°58' E 004°07'0 0.0
2018-Jun-11 16:59N 51°58' E 004°07'0 0.0
2018-Jun-11 16:29N 51°58' E 004°07'0 0.0
2018-Jun-11 15:59N 51°58' E 004°07'0 0.0
2018-Jun-11 15:29N 51°58' E 004°07'0 0.0
2018-Jun-11 14:59N 51°58' E 004°07'0 0.0
2018-Jun-11 14:26N 51°58' E 004°07'0 0.0
2018-Jun-11 13:59N 51°58' E 004°07'0 0.0
2018-Jun-11 13:29N 51°58' E 004°07'0 0.0
2018-Jun-11 12:59N 51°58' E 004°07'0 0.0
2018-Jun-11 12:29N 51°58' E 004°07'0 0.0
2018-Jun-11 11:59N 51°58' E 004°07'0 0.0
2018-Jun-11 11:29N 51°58' E 004°07'0 0.0
2018-Jun-11 10:59N 51°58' E 004°07'0 0.0
2018-Jun-11 10:29N 51°58' E 004°07'0 0.0
2018-Jun-11 09:59N 51°58' E 004°07'0 0.0
2018-Jun-11 09:29N 51°58' E 004°07'0 0.0
2018-Jun-11 08:59N 51°58' E 004°07'0 0.0
2018-Jun-11 08:29N 51°58' E 004°07'0 0.0
2018-Jun-11 07:59N 51°58' E 004°07'0 0.0
2018-Jun-11 07:29N 51°58' E 004°07'0 0.0
2018-Jun-11 06:59N 51°58' E 004°07'0 0.0
2018-Jun-11 06:29N 51°58' E 004°07'0 0.0
2018-Jun-11 05:59N 51°58' E 004°07'0 0.0
2018-Jun-11 05:29N 51°58' E 004°07'0 0.0
2018-Jun-11 04:59N 51°58' E 004°07'0 0.0
2018-Jun-11 04:29N 51°58' E 004°07'0 0.0
2018-Jun-11 03:59N 51°58' E 004°07'0 0.0
2018-Jun-11 03:29N 51°58' E 004°07'0 0.0
2018-Jun-11 02:59N 51°58' E 004°07'0 0.0
2018-Jun-11 02:29N 51°58' E 004°07'0 0.0
2018-Jun-11 01:59N 51°58' E 004°07'0 0.0
2018-Jun-11 01:29N 51°58' E 004°07'0 0.0
2018-Jun-11 00:59N 51°58' E 004°07'0 0.0
2018-Jun-11 00:26N 51°58' E 004°07'0 0.0
2018-Jun-10 23:59N 51°58' E 004°07'0 0.0
2018-Jun-10 23:29N 51°58' E 004°07'0 0.0
2018-Jun-10 22:59N 51°58' E 004°07'0 0.0
2018-Jun-10 22:29N 51°58' E 004°07'0 0.0
2018-Jun-10 21:59N 51°58' E 004°07'0 0.0
2018-Jun-10 21:29N 51°58' E 004°07'0 0.0
2018-Jun-10 20:59N 51°58' E 004°07'0 0.0
2018-Jun-10 20:29N 51°58' E 004°07'0 0.0
2018-Jun-10 19:59N 51°58' E 004°07'0 0.0
2018-Jun-10 19:29N 51°58' E 004°07'0 0.0
2018-Jun-10 18:59N 51°58' E 004°07'0 0.0
2018-Jun-10 18:29N 51°58' E 004°07'0 0.0
2018-Jun-10 17:59N 51°58' E 004°07'0 0.0
2018-Jun-10 17:29N 51°58' E 004°07'0 0.0
2018-Jun-10 16:59N 51°58' E 004°07'0 0.0
2018-Jun-10 16:29N 51°58' E 004°07'0 0.0
2018-Jun-10 15:59N 51°58' E 004°07'0 0.0
2018-Jun-10 15:29N 51°58' E 004°07'0 0.0
2018-Jun-10 14:59N 51°58' E 004°07'0 0.0
2018-Jun-10 13:59N 51°58' E 004°07'0 0.0
2018-Jun-10 13:29N 51°58' E 004°07'0 0.0
2018-Jun-10 12:59N 51°58' E 004°07'0 0.0
2018-Jun-10 12:29N 51°58' E 004°07'0 0.0
2018-Jun-10 11:59N 51°58' E 004°07'0 0.0
2018-Jun-10 11:29N 51°58' E 004°07'0 0.0
2018-Jun-10 10:59N 51°58' E 004°07'0 0.0
2018-Jun-10 10:29N 51°58' E 004°07'0 0.0
2018-Jun-10 09:59N 51°58' E 004°07'0 0.0
2018-Jun-10 09:29N 51°58' E 004°07'0 0.0
2018-Jun-10 08:59N 51°58' E 004°07'0 0.0
2018-Jun-10 08:29N 51°58' E 004°07'0 0.0
2018-Jun-10 07:59N 51°58' E 004°07'0 0.0
2018-Jun-10 07:29N 51°58' E 004°07'0 0.0
2018-Jun-10 06:59N 51°58' E 004°07'0 0.0
2018-Jun-10 06:29N 51°58' E 004°07'0 0.0
2018-Jun-10 05:59N 51°58' E 004°07'0 0.0
2018-Jun-10 05:29N 51°58' E 004°07'0 0.0
2018-Jun-10 04:59N 51°58' E 004°07'0 0.0
2018-Jun-10 04:29N 51°58' E 004°07'0 0.0
2018-Jun-10 03:59N 51°58' E 004°07'0 0.0
2018-Jun-10 03:29N 51°58' E 004°07'0 0.0
2018-Jun-10 02:59N 51°58' E 004°07'0 0.0
2018-Jun-10 02:29N 51°58' E 004°07'0 0.0
2018-Jun-10 01:59N 51°58' E 004°07'0 0.0
2018-Jun-10 01:29N 51°58' E 004°07'0 0.0
2018-Jun-10 00:59N 51°58' E 004°07'0 0.0
2018-Jun-10 00:29N 51°58' E 004°07'0 0.0
2018-Jun-09 23:59N 51°58' E 004°07'0 0.0
2018-Jun-09 23:29N 51°58' E 004°07'0 0.0
2018-Jun-09 22:59N 51°58' E 004°07'0 0.0
2018-Jun-09 22:29N 51°58' E 004°07'0 0.0
2018-Jun-09 21:59N 51°58' E 004°07'0 0.0
2018-Jun-09 21:29N 51°58' E 004°07'0 0.0
2018-Jun-09 20:59N 51°58' E 004°07'0 0.0
2018-Jun-09 20:29N 51°58' E 004°07'0 0.0
2018-Jun-09 19:59N 51°58' E 004°07'0 0.0
2018-Jun-09 19:29N 51°58' E 004°07'0 0.0
2018-Jun-09 18:59N 51°58' E 004°07'0 0.0
2018-Jun-09 18:29N 51°58' E 004°07'0 0.0
2018-Jun-09 17:59N 51°58' E 004°07'0 0.0
2018-Jun-09 17:29N 51°58' E 004°07'0 0.0
2018-Jun-09 16:59N 51°58' E 004°07'0 0.0
2018-Jun-09 16:29N 51°58' E 004°07'0 0.0
2018-Jun-09 15:59N 51°58' E 004°07'0 0.0
2018-Jun-09 14:59N 51°58' E 004°07'0 0.0
2018-Jun-09 14:29N 51°58' E 004°07'0 0.0
2018-Jun-09 13:59N 51°58' E 004°07'0 0.0
2018-Jun-09 13:29N 51°58' E 004°07'0 0.0
2018-Jun-09 12:59N 51°58' E 004°07'0 0.0
2018-Jun-09 12:29N 51°58' E 004°07'0 0.0
2018-Jun-09 11:59N 51°58' E 004°07'0 0.0
2018-Jun-09 11:29N 51°58' E 004°07'0 0.0
2018-Jun-09 10:59N 51°58' E 004°07'0 0.0
2018-Jun-09 10:29N 51°58' E 004°07'0 0.0
2018-Jun-09 09:59N 51°58' E 004°07'0 0.0
2018-Jun-09 09:29N 51°58' E 004°07'0 0.0
2018-Jun-09 08:59N 51°58' E 004°07'0 0.0
2018-Jun-09 08:29N 51°58' E 004°07'0 0.0
2018-Jun-09 07:59N 51°58' E 004°07'0 0.0
2018-Jun-09 07:29N 51°58' E 004°07'0 0.0
2018-Jun-09 06:59N 51°58' E 004°07'0 0.0
2018-Jun-09 06:29N 51°58' E 004°07'0 0.0
2018-Jun-09 05:59N 51°58' E 004°07'0 0.0
2018-Jun-09 05:29N 51°58' E 004°07'0 0.0
2018-Jun-09 04:59N 51°58' E 004°07'0 0.0
2018-Jun-09 04:29N 51°58' E 004°07'0 0.0
2018-Jun-09 03:59N 51°58' E 004°07'0 0.0
2018-Jun-09 03:29N 51°58' E 004°07'0 0.0
2018-Jun-09 02:59N 51°58' E 004°07'0 0.0
2018-Jun-09 02:29N 51°58' E 004°07'0 0.0
2018-Jun-09 01:59N 51°58' E 004°07'0 0.0
2018-Jun-09 01:29N 51°58' E 004°07'0 0.0
2018-Jun-09 00:59N 51°58' E 004°07'0 0.0
2018-Jun-09 00:29N 51°58' E 004°07'0 0.0
2018-Jun-08 23:59N 51°58' E 004°07'0 0.0
2018-Jun-08 23:29N 51°58' E 004°07'0 0.0
2018-Jun-08 22:59N 51°58' E 004°07'0 0.0
2018-Jun-08 22:29N 51°58' E 004°07'0 0.1
2018-Jun-08 22:01N 51°58' E 004°07'1 2.4
2018-Jun-08 21:30N 51°59' E 004°05'3 6.1
2018-Jun-08 21:01N 51°60' E 004°01'4 7.9
2018-Jun-08 20:30N 52°01' E 003°55'5 9.8
2018-Jun-08 20:00N 52°01' E 003°47'511.1
2018-Jun-08 19:30N 52°00' E 003°38'611.1
2018-Jun-08 19:00N 51°60' E 003°29'611.4
2018-Jun-08 18:30N 51°59' E 003°20'510.9
2018-Jun-08 18:00N 51°58' E 003°11'510.2
2018-Jun-08 17:30N 51°58' E 003°03'3 6.8
2018-Jun-08 17:00N 51°57' E 002°57'2 3.7
2018-Jun-08 16:31N 51°56' E 002°56'0 0.1
2018-Jun-08 15:57N 51°56' E 002°56'0 0.0
2018-Jun-08 15:30N 51°56' E 002°56'0 0.0
2018-Jun-08 15:00N 51°56' E 002°56'0 0.0
2018-Jun-08 14:27N 51°56' E 002°56'0 0.0
2018-Jun-08 14:00N 51°56' E 002°56'0 0.5
2018-Jun-08 13:15N 51°56' E 002°56'0 0.2
2018-Jun-08 12:54N 51°56' E 002°56'0 0.1
2018-Jun-08 12:30N 51°56' E 002°56'0 0.1
2018-Jun-08 12:00N 51°56' E 002°56'0 0.0
2018-Jun-08 11:30N 51°56' E 002°56'1 1.6
2018-Jun-08 11:00N 51°57' E 002°56'3 5.4
2018-Jun-08 10:27N 51°56' E 002°51'2 5.2
2018-Jun-08 10:00N 51°55' E 002°48'4 8.6
2018-Jun-08 09:30N 51°52' E 002°43'511.0
2018-Jun-08 09:00N 51°48' E 002°37'610.9
2018-Jun-08 08:25N 51°43' E 002°30'510.9
2018-Jun-08 08:00N 51°39' E 002°26'510.8
2018-Jun-08 07:30N 51°35' E 002°20'510.8
2018-Jun-08 07:00N 51°31' E 002°14'510.6
2018-Jun-08 06:30N 51°27' E 002°09'510.5
2018-Jun-08 06:00N 51°23' E 002°03'510.5
2018-Jun-08 05:30N 51°19' E 001°57'  

Dump ship's entire track history